sensor_id;sensor_type;location;lat;lon;timestamp;pressure;altitude;pressure_sealevel;temperature;humidity
64711;BME280;51139;45.626;6.850;2023-04-16T07:35:41;81769.28;;;1.09;100.00
64711;BME280;51139;45.626;6.850;2023-04-16T07:38:06;81773.50;;;1.12;100.00
64711;BME280;51139;45.626;6.850;2023-04-16T07:40:32;81774.38;;;1.55;100.00
64711;BME280;51139;45.626;6.850;2023-04-16T07:42:57;81778.31;;;1.35;100.00
64711;BME280;51139;45.626;6.850;2023-04-16T07:45:23;81779.66;;;1.77;100.00
64711;BME280;51139;45.626;6.850;2023-04-16T07:47:48;81774.13;;;2.15;100.00
64711;BME280;51139;45.626;6.850;2023-04-16T07:50:14;81775.28;;;2.27;100.00
64711;BME280;51139;45.626;6.850;2023-04-16T07:52:41;81783.00;;;2.54;100.00
64711;BME280;51139;45.626;6.850;2023-04-16T07:55:09;81780.53;;;2.27;100.00
64711;BME280;51139;45.626;6.850;2023-04-16T07:57:35;81784.44;;;2.21;100.00
64711;BME280;51139;45.626;6.850;2023-04-16T08:00:00;81783.00;;;2.54;100.00
64711;BME280;51139;45.626;6.850;2023-04-16T08:02:29;81785.22;;;2.92;100.00
64711;BME280;51139;45.626;6.850;2023-04-16T08:04:54;81790.72;;;2.81;100.00
64711;BME280;51139;45.626;6.850;2023-04-16T08:07:20;81786.44;;;2.91;100.00
64711;BME280;51139;45.626;6.850;2023-04-16T08:09:50;81796.75;;;2.68;100.00
64711;BME280;51139;45.626;6.850;2023-04-16T08:12:16;81804.56;;;2.47;100.00
64711;BME280;51139;45.626;6.850;2023-04-16T08:14:42;81804.00;;;2.83;100.00
64711;BME280;51139;45.626;6.850;2023-04-16T08:17:09;81797.66;;;3.00;100.00
64711;BME280;51139;45.626;6.850;2023-04-16T08:19:34;81802.50;;;3.46;100.00
64711;BME280;51139;45.626;6.850;2023-04-16T08:22:00;81804.41;;;3.45;100.00
64711;BME280;51139;45.626;6.850;2023-04-16T08:24:25;81805.47;;;2.92;100.00
64711;BME280;51139;45.626;6.850;2023-04-16T08:26:50;81812.34;;;3.03;100.00
64711;BME280;51139;45.626;6.850;2023-04-16T08:29:16;81814.25;;;3.02;100.00
64711;BME280;51139;45.626;6.850;2023-04-16T08:31:42;81822.44;;;2.56;100.00
64711;BME280;51139;45.626;6.850;2023-04-16T08:34:07;81816.66;;;2.71;100.00
64711;BME280;51139;45.626;6.850;2023-04-16T08:36:35;81827.34;;;2.60;100.00
64711;BME280;51139;45.626;6.850;2023-04-16T08:39:01;81817.31;;;2.51;100.00
64711;BME280;51139;45.626;6.850;2023-04-16T08:41:30;81827.03;;;2.63;100.00
64711;BME280;51139;45.626;6.850;2023-04-16T08:43:59;81826.59;;;2.73;100.00
64711;BME280;51139;45.626;6.850;2023-04-16T08:46:25;81821.22;;;2.79;100.00
64711;BME280;51139;45.626;6.850;2023-04-16T08:48:53;81827.47;;;2.97;100.00
64711;BME280;51139;45.626;6.850;2023-04-16T08:51:21;81827.03;;;2.63;100.00
64711;BME280;51139;45.626;6.850;2023-04-16T08:53:53;81821.63;;;2.83;100.00
64711;BME280;51139;45.626;6.850;2023-04-16T08:56:23;81824.53;;;3.00;100.00
64711;BME280;51139;45.626;6.850;2023-04-16T08:58:50;81824.47;;;2.92;100.00
64711;BME280;51139;45.626;6.850;2023-04-16T09:01:19;81833.44;;;3.26;100.00
64711;BME280;51139;45.626;6.850;2023-04-16T09:03:46;81831.63;;;3.42;100.00
64711;BME280;51139;45.626;6.850;2023-04-16T09:06:12;81832.56;;;3.24;100.00
64711;BME280;51139;45.626;6.850;2023-04-16T09:08:38;81823.81;;;3.00;100.00
64711;BME280;51139;45.626;6.850;2023-04-16T09:11:05;81831.09;;;2.94;100.00
64711;BME280;51139;45.626;6.850;2023-04-16T09:13:31;81834.84;;;3.06;100.00
64711;BME280;51139;45.626;6.850;2023-04-16T09:15:56;81832.72;;;2.75;100.00
64711;BME280;51139;45.626;6.850;2023-04-16T09:18:22;81831.84;;;2.38;100.00
64711;BME280;51139;45.626;6.850;2023-04-16T09:20:50;81838.44;;;2.53;100.00
64711;BME280;51139;45.626;6.850;2023-04-16T09:23:15;81836.44;;;2.24;100.00
64711;BME280;51139;45.626;6.850;2023-04-16T09:25:41;81832.50;;;2.52;100.00
64711;BME280;51139;45.626;6.850;2023-04-16T09:28:06;81832.66;;;2.89;100.00
64711;BME280;51139;45.626;6.850;2023-04-16T09:30:32;81831.75;;;3.08;100.00
64711;BME280;51139;45.626;6.850;2023-04-16T09:33:18;81833.22;;;3.45;100.00
64711;BME280;51139;45.626;6.850;2023-04-16T09:35:51;81827.00;;;3.27;100.00
64711;BME280;51139;45.626;6.850;2023-04-16T09:38:17;81835.66;;;3.14;100.00
64711;BME280;51139;45.626;6.850;2023-04-16T09:40:43;81838.84;;;2.99;100.00
64711;BME280;51139;45.626;6.850;2023-04-16T09:43:15;81844.38;;;3.17;100.00
64711;BME280;51139;45.626;6.850;2023-04-16T09:45:51;81847.78;;;2.83;100.00
64711;BME280;51139;45.626;6.850;2023-04-16T09:48:30;81856.31;;;3.04;100.00
64711;BME280;51139;45.626;6.850;2023-04-16T09:50:56;81845.00;;;3.31;100.00
64711;BME280;51139;45.626;6.850;2023-04-16T09:53:29;81849.53;;;3.30;100.00
64711;BME280;51139;45.626;6.850;2023-04-16T09:55:56;81853.34;;;3.29;100.00
64711;BME280;51139;45.626;6.850;2023-04-16T09:58:23;81848.28;;;3.02;100.00
64711;BME280;51139;45.626;6.850;2023-04-16T10:01:11;81854.72;;;3.23;100.00
64711;BME280;51139;45.626;6.850;2023-04-16T10:03:39;81846.34;;;3.53;100.00
64711;BME280;51139;45.626;6.850;2023-04-16T10:06:15;81853.91;;;3.57;100.00
64711;BME280;51139;45.626;6.850;2023-04-16T10:08:51;81849.72;;;3.90;100.00
64711;BME280;51139;45.626;6.850;2023-04-16T10:11:18;81852.91;;;3.39;100.00
64711;BME280;51139;45.626;6.850;2023-04-16T10:13:44;81850.88;;;3.24;100.00
64711;BME280;51139;45.626;6.850;2023-04-16T10:16:10;81844.81;;;3.29;100.00
64711;BME280;51139;45.626;6.850;2023-04-16T10:18:41;81850.06;;;3.58;100.00
64711;BME280;51139;45.626;6.850;2023-04-16T10:21:07;81850.34;;;3.46;100.00
64711;BME280;51139;45.626;6.850;2023-04-16T10:23:37;81847.75;;;3.25;100.00
64711;BME280;51139;45.626;6.850;2023-04-16T10:26:04;81849.41;;;3.36;100.00
64711;BME280;51139;45.626;6.850;2023-04-16T10:28:29;81851.00;;;2.97;100.00
64711;BME280;51139;45.626;6.850;2023-04-16T10:30:59;81856.50;;;2.85;100.00
64711;BME280;51139;45.626;6.850;2023-04-16T10:33:34;81851.22;;;2.77;100.00
64711;BME280;51139;45.626;6.850;2023-04-16T10:38:33;81854.72;;;2.80;100.00
64711;BME280;51139;45.626;6.850;2023-04-16T10:41:02;81846.50;;;3.18;100.00
64711;BME280;51139;45.626;6.850;2023-04-16T10:43:29;81843.31;;;3.41;100.00
64711;BME280;51139;45.626;6.850;2023-04-16T10:45:54;81848.16;;;3.58;100.00
64711;BME280;51139;45.626;6.850;2023-04-16T10:48:22;81847.16;;;3.69;100.00
64711;BME280;51139;45.626;6.850;2023-04-16T10:50:55;81844.47;;;3.90;100.00
64711;BME280;51139;45.626;6.850;2023-04-16T10:53:24;81849.47;;;4.09;100.00
64711;BME280;51139;45.626;6.850;2023-04-16T10:58:33;81854.59;;;3.86;100.00
64711;BME280;51139;45.626;6.850;2023-04-16T11:01:00;81856.47;;;3.78;100.00
64711;BME280;51139;45.626;6.850;2023-04-16T11:03:30;81851.22;;;3.78;100.00
64711;BME280;51139;45.626;6.850;2023-04-16T11:06:25;81845.56;;;3.66;100.00
64711;BME280;51139;45.626;6.850;2023-04-16T11:08:52;81849.75;;;3.61;100.00
64711;BME280;51139;45.626;6.850;2023-04-16T11:11:18;81853.91;;;3.57;100.00
64711;BME280;51139;45.626;6.850;2023-04-16T11:13:44;81846.94;;;2.88;100.00
64711;BME280;51139;45.626;6.850;2023-04-16T11:16:12;81840.81;;;2.85;100.00
64711;BME280;51139;45.626;6.850;2023-04-16T11:18:38;81846.16;;;2.24;100.00
64711;BME280;51139;45.626;6.850;2023-04-16T11:21:11;81847.28;;;2.28;100.00
64711;BME280;51139;45.626;6.850;2023-04-16T11:23:51;81843.88;;;2.76;100.00
64711;BME280;51139;45.626;6.850;2023-04-16T11:26:26;81852.66;;;2.44;100.00
64711;BME280;51139;45.626;6.850;2023-04-16T11:28:53;81854.19;;;3.03;100.00
64711;BME280;51139;45.626;6.850;2023-04-16T11:31:20;81849.50;;;3.23;100.00
64711;BME280;51139;45.626;6.850;2023-04-16T11:33:47;81860.09;;;3.46;100.00
64711;BME280;51139;45.626;6.850;2023-04-16T11:36:12;81851.00;;;3.39;100.00
64711;BME280;51139;45.626;6.850;2023-04-16T11:38:38;81850.72;;;3.50;100.00
64711;BME280;51139;45.626;6.850;2023-04-16T11:41:07;81856.41;;;3.70;100.00
64711;BME280;51139;45.626;6.850;2023-04-16T11:43:33;81857.16;;;3.49;100.00
64711;BME280;51139;45.626;6.850;2023-04-16T11:46:00;81857.03;;;3.55;100.00
64711;BME280;51139;45.626;6.850;2023-04-16T11:48:52;81869.38;;;3.76;100.00
64711;BME280;51139;45.626;6.850;2023-04-16T11:51:18;81860.53;;;3.87;100.00
64711;BME280;51139;45.626;6.850;2023-04-16T11:53:51;81860.53;;;3.58;100.00
64711;BME280;51139;45.626;6.850;2023-04-16T11:56:32;81858.19;;;3.46;100.00
64711;BME280;51139;45.626;6.850;2023-04-16T11:59:11;81857.13;;;3.71;100.00
64711;BME280;51139;45.626;6.850;2023-04-16T12:01:38;81862.97;;;3.56;100.00
64711;BME280;51139;45.626;6.850;2023-04-16T12:04:04;81859.00;;;3.12;100.00
64711;BME280;51139;45.626;6.850;2023-04-16T12:06:30;81869.97;;;3.11;100.00
64711;BME280;51139;45.626;6.850;2023-04-16T12:08:57;81868.31;;;3.00;100.00
64711;BME280;51139;45.626;6.850;2023-04-16T12:11:41;81869.66;;;2.93;100.00
64711;BME280;51139;45.626;6.850;2023-04-16T12:14:11;81869.19;;;2.60;100.00
64711;BME280;51139;45.626;6.850;2023-04-16T12:16:37;81876.03;;;2.84;100.00
64711;BME280;51139;45.626;6.850;2023-04-16T12:19:03;81874.91;;;2.93;100.00
64711;BME280;51139;45.626;6.850;2023-04-16T12:21:46;81867.81;;;3.23;100.00
64711;BME280;51139;45.626;6.850;2023-04-16T12:24:17;81865.63;;;3.34;100.00
64711;BME280;51139;45.626;6.850;2023-04-16T12:26:52;81877.88;;;3.40;100.00
64711;BME280;51139;45.626;6.850;2023-04-16T12:29:25;81879.41;;;3.56;100.00
64711;BME280;51139;45.626;6.850;2023-04-16T12:31:52;81878.03;;;3.63;100.00
64711;BME280;51139;45.626;6.850;2023-04-16T12:34:19;81874.91;;;3.93;100.00
64711;BME280;51139;45.626;6.850;2023-04-16T12:36:45;81874.56;;;3.39;99.64
64711;BME280;51139;45.626;6.850;2023-04-16T12:39:12;81874.47;;;3.53;99.42
64711;BME280;51139;45.626;6.850;2023-04-16T12:41:40;81875.78;;;3.38;97.34
64711;BME280;51139;45.626;6.850;2023-04-16T12:46:40;81873.84;;;3.39;96.96
64711;BME280;51139;45.626;6.850;2023-04-16T12:49:07;81870.44;;;3.52;100.00
64711;BME280;51139;45.626;6.850;2023-04-16T12:51:33;81872.66;;;3.18;99.38
64711;BME280;51139;45.626;6.850;2023-04-16T12:54:02;81873.94;;;3.25;95.59
64711;BME280;51139;45.626;6.850;2023-04-16T12:56:28;81877.19;;;3.39;99.24
64711;BME280;51139;45.626;6.850;2023-04-16T12:58:54;81874.28;;;3.50;98.27
64711;BME280;51139;45.626;6.850;2023-04-16T13:01:20;81866.81;;;3.55;100.00
64711;BME280;51139;45.626;6.850;2023-04-16T13:03:45;81866.88;;;3.62;100.00
64711;BME280;51139;45.626;6.850;2023-04-16T13:06:12;81875.59;;;3.94;95.87
64711;BME280;51139;45.626;6.850;2023-04-16T13:08:38;81870.84;;;3.56;93.99
64711;BME280;51139;45.626;6.850;2023-04-16T13:11:04;81858.53;;;2.79;99.41
64711;BME280;51139;45.626;6.850;2023-04-16T13:13:30;81868.38;;;3.29;99.04
64711;BME280;51139;45.626;6.850;2023-04-16T13:15:56;81864.69;;;3.53;100.00
64711;BME280;51139;45.626;6.850;2023-04-16T13:18:21;81872.34;;;3.01;99.43
64711;BME280;51139;45.626;6.850;2023-04-16T13:20:47;81857.44;;;3.67;99.19
64711;BME280;51139;45.626;6.850;2023-04-16T13:23:12;81863.38;;;3.97;95.99
64711;BME280;51139;45.626;6.850;2023-04-16T13:25:38;81859.44;;;4.11;88.15
64711;BME280;51139;45.626;6.850;2023-04-16T13:28:03;81862.03;;;4.03;89.70
64711;BME280;51139;45.626;6.850;2023-04-16T13:30:28;81861.59;;;4.28;89.61
64711;BME280;51139;45.626;6.850;2023-04-16T13:32:55;81873.53;;;4.00;92.54
64711;BME280;51139;45.626;6.850;2023-04-16T13:35:21;81865.03;;;4.15;98.38
64711;BME280;51139;45.626;6.850;2023-04-16T13:37:46;81864.34;;;4.15;91.13
64711;BME280;51139;45.626;6.850;2023-04-16T13:40:12;81866.69;;;3.97;89.45
64711;BME280;51139;45.626;6.850;2023-04-16T13:42:37;81859.88;;;3.94;91.43
64711;BME280;51139;45.626;6.850;2023-04-16T13:45:02;81864.16;;;4.13;93.05
64711;BME280;51139;45.626;6.850;2023-04-16T13:47:28;81864.28;;;4.44;95.07
64711;BME280;51139;45.626;6.850;2023-04-16T13:49:54;81858.94;;;4.20;95.94
64711;BME280;51139;45.626;6.850;2023-04-16T13:52:19;81868.13;;;3.98;94.85
64711;BME280;51139;45.626;6.850;2023-04-16T13:54:45;81856.25;;;4.05;93.93
64711;BME280;51139;45.626;6.850;2023-04-16T13:57:10;81861.72;;;4.15;96.05
64711;BME280;51139;45.626;6.850;2023-04-16T13:59:36;81862.00;;;4.40;93.95
64711;BME280;51139;45.626;6.850;2023-04-16T14:02:02;81858.41;;;4.14;93.77
64711;BME280;51139;45.626;6.850;2023-04-16T14:04:29;81857.09;;;4.36;92.32
64711;BME280;51139;45.626;6.850;2023-04-16T14:06:55;81855.97;;;4.68;89.56
64711;BME280;51139;45.626;6.850;2023-04-16T14:09:20;81853.69;;;4.20;87.01
64711;BME280;51139;45.626;6.850;2023-04-16T14:11:46;81860.44;;;4.00;88.83
64711;BME280;51139;45.626;6.850;2023-04-16T14:14:11;81854.41;;;3.84;91.46
64711;BME280;51139;45.626;6.850;2023-04-16T14:16:37;81864.97;;;4.00;89.51
64711;BME280;51139;45.626;6.850;2023-04-16T14:19:02;81861.53;;;4.13;86.70
64711;BME280;51139;45.626;6.850;2023-04-16T14:21:28;81857.19;;;4.15;88.42
64711;BME280;51139;45.626;6.850;2023-04-16T14:23:53;81854.22;;;3.82;89.50
64711;BME280;51139;45.626;6.850;2023-04-16T14:26:18;81853.50;;;3.82;92.31
64711;BME280;51139;45.626;6.850;2023-04-16T14:28:44;81857.53;;;3.54;92.78
64711;BME280;51139;45.626;6.850;2023-04-16T14:31:10;81852.25;;;3.46;96.07
64711;BME280;51139;45.626;6.850;2023-04-16T14:33:35;81851.22;;;3.49;96.47
64711;BME280;51139;45.626;6.850;2023-04-16T14:36:02;81858.47;;;3.64;94.57
64711;BME280;51139;45.626;6.850;2023-04-16T14:38:27;81854.56;;;3.49;94.98
64711;BME280;51139;45.626;6.850;2023-04-16T14:40:53;81860.72;;;3.60;96.30
64711;BME280;51139;45.626;6.850;2023-04-16T14:43:19;81855.19;;;4.00;93.11
64711;BME280;51139;45.626;6.850;2023-04-16T14:45:44;81855.00;;;3.98;95.98
64711;BME280;51139;45.626;6.850;2023-04-16T14:48:10;81850.28;;;3.97;96.77
64711;BME280;51139;45.626;6.850;2023-04-16T14:50:35;81855.97;;;4.16;92.46
64711;BME280;51139;45.626;6.850;2023-04-16T14:53:03;81850.16;;;4.55;89.74
64711;BME280;51139;45.626;6.850;2023-04-16T14:55:29;81851.34;;;4.46;88.97
64711;BME280;51139;45.626;6.850;2023-04-16T14:57:54;81842.66;;;4.14;86.63
64711;BME280;51139;45.626;6.850;2023-04-16T15:00:20;81844.47;;;4.27;87.23
64711;BME280;51139;45.626;6.850;2023-04-16T15:02:46;81848.88;;;4.40;86.15
64711;BME280;51139;45.626;6.850;2023-04-16T15:05:12;81859.50;;;3.90;86.39
64711;BME280;51139;45.626;6.850;2023-04-16T15:07:37;81851.44;;;3.88;85.71
64711;BME280;51139;45.626;6.850;2023-04-16T15:10:03;81851.72;;;4.05;86.98
64711;BME280;51139;45.626;6.850;2023-04-16T15:12:29;81844.81;;;4.23;85.61
64711;BME280;51139;45.626;6.850;2023-04-16T15:14:54;81847.47;;;3.94;89.50
64711;BME280;51139;45.626;6.850;2023-04-16T15:17:20;81848.56;;;3.99;87.47
64711;BME280;51139;45.626;6.850;2023-04-16T15:19:45;81845.53;;;3.95;82.51
64711;BME280;51139;45.626;6.850;2023-04-16T15:22:11;81852.06;;;4.02;85.25
64711;BME280;51139;45.626;6.850;2023-04-16T15:24:39;81847.34;;;3.71;87.00
64711;BME280;51139;45.626;6.850;2023-04-16T15:27:04;81848.34;;;3.97;85.57
64711;BME280;51139;45.626;6.850;2023-04-16T15:29:31;81852.41;;;3.40;88.52
64711;BME280;51139;45.626;6.850;2023-04-16T15:31:56;81852.56;;;3.13;90.99
64711;BME280;51139;45.626;6.850;2023-04-16T15:34:21;81852.41;;;3.40;90.77
64711;BME280;51139;45.626;6.850;2023-04-16T15:36:47;81847.69;;;3.68;91.98
64711;BME280;51139;45.626;6.850;2023-04-16T15:39:12;81852.47;;;3.85;86.13
64711;BME280;51139;45.626;6.850;2023-04-16T15:41:37;81841.03;;;3.67;83.81
64711;BME280;51139;45.626;6.850;2023-04-16T15:44:04;81843.41;;;3.57;85.99
64711;BME280;51139;45.626;6.850;2023-04-16T15:46:30;81851.22;;;3.49;86.97
64711;BME280;51139;45.626;6.850;2023-04-16T15:48:55;81840.91;;;3.43;88.12
64711;BME280;51139;45.626;6.850;2023-04-16T15:51:21;81848.44;;;3.76;86.01
64711;BME280;51139;45.626;6.850;2023-04-16T15:53:47;81849.13;;;3.76;85.48
64711;BME280;51139;45.626;6.850;2023-04-16T15:56:14;81844.44;;;3.54;84.76
64711;BME280;51139;45.626;6.850;2023-04-16T15:58:39;81842.63;;;3.70;85.99
64711;BME280;51139;45.626;6.850;2023-04-16T16:01:04;81840.84;;;3.93;81.88
64711;BME280;51139;45.626;6.850;2023-04-16T16:03:30;81844.66;;;4.29;83.53
64711;BME280;51139;45.626;6.850;2023-04-16T16:05:57;81843.09;;;3.97;83.82
64711;BME280;51139;45.626;6.850;2023-04-16T16:08:22;81849.25;;;4.00;84.59
64711;BME280;51139;45.626;6.850;2023-04-16T16:10:48;81842.50;;;3.25;86.12
64711;BME280;51139;45.626;6.850;2023-04-16T16:13:13;81853.31;;;3.00;91.81
64711;BME280;51139;45.626;6.850;2023-04-16T16:15:42;81848.47;;;3.26;89.68
64711;BME280;51139;45.626;6.850;2023-04-16T16:18:08;81846.75;;;2.86;90.88
64711;BME280;51139;45.626;6.850;2023-04-16T16:20:34;81848.78;;;3.01;96.51
64711;BME280;51139;45.626;6.850;2023-04-16T16:23:01;81848.97;;;3.24;96.50
64711;BME280;51139;45.626;6.850;2023-04-16T16:25:26;81852.53;;;3.34;94.33
64711;BME280;51139;45.626;6.850;2023-04-16T16:27:52;81842.72;;;3.06;96.54
64711;BME280;51139;45.626;6.850;2023-04-16T16:30:17;81843.53;;;3.22;93.37
64711;BME280;51139;45.626;6.850;2023-04-16T16:32:43;81851.84;;;3.34;94.46
64711;BME280;51139;45.626;6.850;2023-04-16T16:35:09;81854.09;;;2.31;97.83
64711;BME280;51139;45.626;6.850;2023-04-16T16:37:36;81854.69;;;2.59;100.00
64711;BME280;51139;45.626;6.850;2023-04-16T16:40:01;81851.59;;;3.03;99.93
64711;BME280;51139;45.626;6.850;2023-04-16T16:42:27;81850.69;;;3.21;98.70
64711;BME280;51139;45.626;6.850;2023-04-16T16:44:52;81843.69;;;3.45;98.25
64711;BME280;51139;45.626;6.850;2023-04-16T16:47:17;81859.88;;;3.36;96.74
64711;BME280;51139;45.626;6.850;2023-04-16T16:49:43;81859.09;;;2.64;97.93
64711;BME280;51139;45.626;6.850;2023-04-16T16:52:09;81856.81;;;3.03;100.00
64711;BME280;51139;45.626;6.850;2023-04-16T16:54:34;81858.09;;;3.31;99.31
64711;BME280;51139;45.626;6.850;2023-04-16T16:57:00;81861.69;;;3.49;96.84
64711;BME280;51139;45.626;6.850;2023-04-16T16:59:26;81854.94;;;3.32;95.59
64711;BME280;51139;45.626;6.850;2023-04-16T17:01:52;81854.19;;;3.24;98.23
64711;BME280;51139;45.626;6.850;2023-04-16T17:04:17;81849.94;;;2.92;98.57
64711;BME280;51139;45.626;6.850;2023-04-16T17:06:43;81845.84;;;3.26;97.24
64711;BME280;51139;45.626;6.850;2023-04-16T17:09:08;81853.59;;;3.60;95.65
64711;BME280;51139;45.626;6.850;2023-04-16T17:11:34;81850.88;;;3.82;93.82
64711;BME280;51139;45.626;6.850;2023-04-16T17:14:00;81846.53;;;3.05;96.56
64711;BME280;51139;45.626;6.850;2023-04-16T17:16:25;81851.84;;;3.13;97.93
64711;BME280;51139;45.626;6.850;2023-04-16T17:18:51;81852.78;;;3.44;98.30
64711;BME280;51139;45.626;6.850;2023-04-16T17:21:16;81845.34;;;3.56;96.99
64711;BME280;51139;45.626;6.850;2023-04-16T17:23:42;81848.91;;;3.67;95.30
64711;BME280;51139;45.626;6.850;2023-04-16T17:26:07;81853.81;;;3.70;93.93
64711;BME280;51139;45.626;6.850;2023-04-16T17:28:32;81855.78;;;3.27;96.99
64711;BME280;51139;45.626;6.850;2023-04-16T17:30:58;81845.31;;;3.06;100.00
64711;BME280;51139;45.626;6.850;2023-04-16T17:33:23;81853.06;;;2.90;100.00
64711;BME280;51139;45.626;6.850;2023-04-16T17:35:49;81846.88;;;3.01;100.00
64711;BME280;51139;45.626;6.850;2023-04-16T17:38:14;81854.09;;;2.87;100.00
64711;BME280;51139;45.626;6.850;2023-04-16T17:40:40;81850.72;;;3.00;100.00
64711;BME280;51139;45.626;6.850;2023-04-16T17:43:05;81845.00;;;3.31;97.81
64711;BME280;51139;45.626;6.850;2023-04-16T17:45:32;81850.44;;;3.33;96.60
64711;BME280;51139;45.626;6.850;2023-04-16T17:47:57;81849.41;;;3.36;97.34
64711;BME280;51139;45.626;6.850;2023-04-16T17:50:22;81853.06;;;3.12;98.44
64711;BME280;51139;45.626;6.850;2023-04-16T17:52:48;81856.78;;;3.16;100.00
64711;BME280;51139;45.626;6.850;2023-04-16T17:55:14;81854.84;;;2.96;100.00
64711;BME280;51139;45.626;6.850;2023-04-16T17:57:40;81852.47;;;3.27;100.00
64711;BME280;51139;45.626;6.850;2023-04-16T18:00:06;81859.69;;;3.34;100.00
64711;BME280;51139;45.626;6.850;2023-04-16T18:02:35;81863.44;;;3.46;100.00
64711;BME280;51139;45.626;6.850;2023-04-16T18:05:03;81861.84;;;2.24;100.00
64711;BME280;51139;45.626;6.850;2023-04-16T18:07:30;81867.66;;;1.68;100.00
64711;BME280;51139;45.626;6.850;2023-04-16T18:09:55;81864.94;;;1.74;100.00
64711;BME280;51139;45.626;6.850;2023-04-16T18:12:21;81868.56;;;1.57;100.00
64711;BME280;51139;45.626;6.850;2023-04-16T18:14:46;81868.94;;;1.75;100.00
64711;BME280;51139;45.626;6.850;2023-04-16T18:17:11;81873.97;;;2.00;100.00
64711;BME280;51139;45.626;6.850;2023-04-16T18:19:37;81875.22;;;2.20;100.00
64711;BME280;51139;45.626;6.850;2023-04-16T18:22:04;81875.31;;;2.28;100.00
64711;BME280;51139;45.626;6.850;2023-04-16T18:24:30;81870.06;;;1.80;100.00
64711;BME280;51139;45.626;6.850;2023-04-16T18:26:57;81875.16;;;1.05;100.00
64711;BME280;51139;45.626;6.850;2023-04-16T18:29:23;81877.38;;;1.14;100.00
64711;BME280;51139;45.626;6.850;2023-04-16T18:31:48;81879.13;;;0.92;100.00
64711;BME280;51139;45.626;6.850;2023-04-16T18:34:14;81878.06;;;1.14;100.00
64711;BME280;51139;45.626;6.850;2023-04-16T18:36:40;81877.78;;;1.31;100.00
64711;BME280;51139;45.626;6.850;2023-04-16T18:39:05;81873.75;;;1.04;100.00
64711;BME280;51139;45.626;6.850;2023-04-16T18:41:32;81883.31;;;0.82;100.00
64711;BME280;51139;45.626;6.850;2023-04-16T18:43:57;81873.97;;;1.19;100.00
64711;BME280;51139;45.626;6.850;2023-04-16T18:46:23;81881.25;;;1.07;100.00
64711;BME280;51139;45.626;6.850;2023-04-16T18:48:49;81876.16;;;1.01;100.00
64711;BME280;51139;45.626;6.850;2023-04-16T18:51:14;81875.94;;;0.99;100.00
64711;BME280;51139;45.626;6.850;2023-04-16T18:53:40;81875.38;;;1.20;100.00
64711;BME280;51139;45.626;6.850;2023-04-16T18:56:08;81878.50;;;1.59;100.00
64711;BME280;51139;45.626;6.850;2023-04-16T18:58:33;81876.19;;;1.55;100.00
64711;BME280;51139;45.626;6.850;2023-04-16T19:00:59;81879.91;;;1.47;100.00
64711;BME280;51139;45.626;6.850;2023-04-16T19:03:25;81873.88;;;1.79;100.00
64711;BME280;51139;45.626;6.850;2023-04-16T19:05:55;81872.59;;;2.20;100.00
64711;BME280;51139;45.626;6.850;2023-04-16T19:08:20;81873.47;;;2.36;100.00
64711;BME280;51139;45.626;6.850;2023-04-16T19:10:49;81868.41;;;2.03;100.00
64711;BME280;51139;45.626;6.850;2023-04-16T19:13:14;81863.44;;;1.52;100.00
64711;BME280;51139;45.626;6.850;2023-04-16T19:15:40;81870.31;;;0.95;100.00
64711;BME280;51139;45.626;6.850;2023-04-16T19:18:05;81871.31;;;0.92;100.00
64711;BME280;51139;45.626;6.850;2023-04-16T19:20:35;81865.63;;;1.74;100.00
64711;BME280;51139;45.626;6.850;2023-04-16T19:23:04;81866.25;;;1.54;100.00
64711;BME280;51139;45.626;6.850;2023-04-16T19:25:32;81867.63;;;1.95;100.00
64711;BME280;51139;45.626;6.850;2023-04-16T19:27:57;81868.16;;;1.80;100.00
64711;BME280;51139;45.626;6.850;2023-04-16T19:30:23;81875.25;;;1.26;100.00
64711;BME280;51139;45.626;6.850;2023-04-16T19:32:48;81873.19;;;0.78;100.00
64711;BME280;51139;45.626;6.850;2023-04-16T19:35:13;81875.13;;;0.91;100.00
64711;BME280;51139;45.626;6.850;2023-04-16T19:37:39;81874.38;;;1.64;100.00
64711;BME280;51139;45.626;6.850;2023-04-16T19:40:05;81872.34;;;2.10;100.00
64711;BME280;51139;45.626;6.850;2023-04-16T19:42:31;81873.53;;;2.09;100.00
64711;BME280;51139;45.626;6.850;2023-04-16T19:44:57;81878.25;;;2.11;100.00
64711;BME280;51139;45.626;6.850;2023-04-16T19:47:23;81883.69;;;2.47;100.00
64711;BME280;51139;45.626;6.850;2023-04-16T19:49:48;81875.13;;;2.60;100.00
64711;BME280;51139;45.626;6.850;2023-04-16T19:52:14;81881.84;;;2.35;100.00
64711;BME280;51139;45.626;6.850;2023-04-16T19:54:40;81880.38;;;2.12;100.00
64711;BME280;51139;45.626;6.850;2023-04-16T19:57:06;81875.44;;;2.22;100.00
64711;BME280;51139;45.626;6.850;2023-04-16T19:59:31;81880.69;;;1.95;100.00
64711;BME280;51139;45.626;6.850;2023-04-16T20:01:57;81885.84;;;1.87;100.00
64711;BME280;51139;45.626;6.850;2023-04-16T20:04:23;81874.44;;;2.12;100.00
64711;BME280;51139;45.626;6.850;2023-04-16T20:06:48;81871.53;;;2.02;100.00
64711;BME280;51139;45.626;6.850;2023-04-16T20:09:14;81871.47;;;1.54;100.00
64711;BME280;51139;45.626;6.850;2023-04-16T20:11:39;81871.88;;;1.44;100.00
64711;BME280;51139;45.626;6.850;2023-04-16T20:14:04;81873.84;;;1.25;100.00
64711;BME280;51139;45.626;6.850;2023-04-16T20:16:30;81879.59;;;1.50;100.00
64711;BME280;51139;45.626;6.850;2023-04-16T20:18:56;81871.56;;;1.35;100.00
64711;BME280;51139;45.626;6.850;2023-04-16T20:21:21;81869.47;;;1.73;100.00
64711;BME280;51139;45.626;6.850;2023-04-16T20:23:47;81870.66;;;1.72;100.00
64711;BME280;51139;45.626;6.850;2023-04-16T20:26:13;81869.44;;;2.00;100.00
64711;BME280;51139;45.626;6.850;2023-04-16T20:28:40;81876.19;;;1.28;100.00
64711;BME280;51139;45.626;6.850;2023-04-16T20:31:06;81871.56;;;1.75;100.00
64711;BME280;51139;45.626;6.850;2023-04-16T20:33:31;81871.47;;;1.81;100.00
64711;BME280;51139;45.626;6.850;2023-04-16T20:35:56;81871.63;;;1.96;100.00
64711;BME280;51139;45.626;6.850;2023-04-16T20:38:22;81865.09;;;2.16;100.00
64711;BME280;51139;45.626;6.850;2023-04-16T20:40:48;81863.09;;;2.09;100.00
64711;BME280;51139;45.626;6.850;2023-04-16T20:43:22;81862.38;;;2.09;100.00
64711;BME280;51139;45.626;6.850;2023-04-16T20:45:50;81852.16;;;1.97;100.00